| time (UTC) | temp F | wind direction | speed MPH | gust MPH | rain 1hr in | rain 24hr in | rain mn in | humidity % | barometer mb |
| 20260904062409 | 69 | 64 | 0.0 | 2.0 | 0.00 | 0.00 | 0.00 | 97 | 1008.4 |
| 20260904061904 | 69 | 76 | 0.0 | 2.0 | 0.00 | 0.00 | 0.00 | 97 | 1008.8 |
| 20260904061401 | 69 | 72 | 0.0 | 2.0 | 0.00 | 0.00 | 0.00 | 97 | 1008.8 |
| 20260904060856 | 69 | 57 | 0.0 | 2.0 | 0.00 | 0.00 | 0.00 | 97 | 1008.6 |
| 20260904060352 | 69 | 51 | 2.0 | 2.0 | 0.00 | 0.00 | 0.00 | 97 | 1008.8 |
| 20260904060006 | 69 | 190 | 0.0 | 0.0 | 0.00 | 0.17 | 0.00 | 97 | 1006.8 |
| 20260904055847 | 69 | 77 | 0.0 | 2.0 | 0.00 | 0.00 | 0.00 | 97 | 1009.1 |
| 20260904055342 | 69 | 110 | 0.0 | 2.0 | 0.00 | 0.00 | 0.00 | 97 | 1008.8 |
| 20260904054838 | 69 | 62 | 2.0 | 2.0 | 0.00 | 0.00 | 0.00 | 97 | 1008.9 |
| 20260904054506 | 69 | 190 | 0.0 | 1.0 | 0.00 | 0.18 | 0.00 | 97 | 1007.0 |
| 20260904054334 | 69 | 52 | 0.0 | 1.0 | 0.00 | 0.00 | 0.00 | 97 | 1009.1 |
| 20260904053829 | 69 | 37 | 0.0 | 2.0 | 0.00 | 0.00 | 0.00 | 97 | 1009.0 |
| 20260904053329 | 69 | 98 | 0.0 | 2.0 | 0.00 | 0.00 | 0.00 | 97 | 1009.1 |
| 20260904053006 | 69 | 190 | 0.0 | 0.0 | 0.00 | 0.19 | 0.00 | 97 | 1007.1 |
| 20260904052825 | 69 | 66 | 0.0 | 2.0 | 0.00 | 0.00 | 0.00 | 97 | 1009.2 |
| 20260904052321 | 69 | 74 | 1.0 | 2.0 | 0.00 | 0.00 | 0.00 | 97 | 1009.2 |
| 20260904051817 | 69 | 62 | 1.0 | 2.0 | 0.00 | 0.00 | 0.00 | 97 | 1009.4 |
| 20260904051313 | 69 | 58 | 1.0 | 2.0 | 0.00 | 0.00 | 0.00 | 96 | 1009.2 |
| 20260904050807 | 69 | 44 | 0.0 | 1.0 | 0.00 | 0.00 | 0.00 | 96 | 1009.4 |
| 20260904050304 | 69 | 227 | 1.0 | 1.0 | 0.00 | 0.00 | 0.00 | 96 | 1009.2 |
| 20260904050007 | 69 | 248 | 1.0 | 2.0 | 0.00 | 0.19 | 0.00 | 96 | 1007.2 |
| 20260904045804 | 69 | 212 | 1.0 | 2.0 | 0.00 | 0.00 | 0.00 | 96 | 1009.0 |
| 20260904045259 | 69 | 64 | 0.0 | 2.0 | 0.00 | 0.00 | 0.00 | 96 | 1009.1 |
| 20260904044753 | 69 | 41 | 2.0 | 2.0 | 0.00 | 0.00 | 0.00 | 96 | 1009.0 |
| 20260904044507 | 70 | 232 | 0.0 | 1.0 | 0.00 | 0.22 | 0.00 | 96 | 1007.1 |
| 20260904044251 | 69 | 33 | 0.0 | 2.0 | 0.00 | 0.00 | 0.00 | 95 | 1008.9 |
| 20260904043746 | 69 | 80 | 1.0 | 2.0 | 0.00 | 0.00 | 0.00 | 95 | 1009.0 |
| 20260904043242 | 69 | 55 | 0.0 | 2.0 | 0.00 | 0.00 | 0.00 | 95 | 1009.0 |
| 20260904042737 | 69 | 77 | 0.0 | 2.0 | 0.00 | 0.00 | 0.00 | 95 | 1009.0 |
| 20260904042234 | 70 | 45 | 0.0 | 2.0 | 0.00 | 0.00 | 0.00 | 95 | 1009.0 |
| 20260904041733 | 70 | 229 | 0.0 | 1.0 | 0.00 | 0.00 | 0.00 | 95 | 1008.9 |
| 20260904041506 | 70 | 232 | 0.0 | 2.0 | 0.00 | 0.27 | 0.00 | 96 | 1007.1 |
| 20260904041229 | 70 | 80 | 1.0 | 3.0 | 0.00 | 0.00 | 0.00 | 95 | 1009.1 |
| 20260904040725 | 69 | 62 | 2.0 | 2.0 | 0.00 | 0.00 | 0.00 | 95 | 1009.2 |
| 20260904040220 | 70 | 240 | 1.0 | 4.0 | 0.00 | 0.00 | 0.00 | 95 | 1009.5 |
| 20260904040007 | 70 | 198 | 0.0 | 0.0 | 0.00 | 0.27 | 0.00 | 96 | 1007.5 |
| 20260904035716 | 70 | 47 | 1.0 | 2.0 | 0.00 | 0.26 | 0.26 | 95 | 1009.2 |
| 20260904035212 | 70 | 65 | 1.0 | 2.0 | 0.00 | 0.26 | 0.26 | 95 | 1009.2 |
| 20260904034710 | 70 | 129 | 0.0 | 1.0 | 0.00 | 0.26 | 0.26 | 95 | 1009.3 |
| 20260904034508 | 71 | 198 | 0.0 | 0.0 | 0.01 | 0.27 | 0.27 | 96 | 1007.3 |
| 20260904034206 | 70 | 269 | 0.0 | 2.0 | 0.00 | 0.26 | 0.26 | 95 | 1009.1 |
| 20260904033702 | 70 | 72 | 0.0 | 2.0 | 0.00 | 0.26 | 0.26 | 95 | 1009.2 |
| 20260904033159 | 70 | 59 | 2.0 | 2.0 | 0.00 | 0.26 | 0.26 | 95 | 1009.4 |
| 20260904033007 | 71 | 198 | 0.0 | 0.0 | 0.01 | 0.27 | 0.27 | 95 | 1007.4 |
| 20260904032655 | 70 | 58 | 0.0 | 2.0 | 0.00 | 0.26 | 0.26 | 95 | 1009.4 |
| 20260904032154 | 70 | 55 | 0.0 | 2.0 | 0.00 | 0.26 | 0.26 | 95 | 1009.5 |
| 20260904031654 | 70 | 70 | 2.0 | 2.0 | 0.00 | 0.26 | 0.26 | 95 | 1009.7 |
| 20260904031507 | 71 | 198 | 0.0 | 0.0 | 0.01 | 0.27 | 0.27 | 95 | 1007.7 |
| 20260904031149 | 70 | 97 | 0.0 | 2.0 | 0.00 | 0.26 | 0.26 | 95 | 1009.5 |
| 20260904030645 | 70 | 214 | 0.0 | 1.0 | 0.00 | 0.26 | 0.26 | 95 | 1009.5 |
| 20260904030140 | 70 | 98 | 0.0 | 1.0 | 0.00 | 0.26 | 0.26 | 95 | 1009.6 |
| 20260904030007 | 71 | 227 | 0.0 | 0.0 | 0.01 | 0.28 | 0.27 | 95 | 1007.8 |
| 20260904025636 | 70 | 230 | 0.0 | 3.0 | 0.00 | 0.26 | 0.26 | 95 | 1009.5 |
| 20260904025130 | 71 | 113 | 0.0 | 1.0 | 0.00 | 0.26 | 0.26 | 96 | 1009.6 |
| 20260904024626 | 71 | 322 | 0.0 | 1.0 | 0.00 | 0.26 | 0.26 | 96 | 1009.5 |
| 20260904024507 | 72 | 184 | 0.0 | 0.0 | 0.00 | 0.30 | 0.26 | 96 | 1007.6 |
| 20260904024122 | 71 | 124 | 0.0 | 1.0 | 0.00 | 0.26 | 0.26 | 96 | 1009.2 |
| 20260904023617 | 71 | 82 | 0.0 | 0.0 | 0.00 | 0.26 | 0.26 | 96 | 1009.3 |
| 20260904023113 | 72 | 66 | 0.0 | 2.0 | 0.00 | 0.26 | 0.26 | 96 | 1009.1 |
| 20260904023007 | 72 | 184 | 0.0 | 0.0 | 0.00 | 0.68 | 0.26 | 96 | 1007.3 |
| 20260904022613 | 72 | 50 | 0.0 | 1.0 | 0.00 | 0.26 | 0.26 | 96 | 1009.2 |
| 20260904022110 | 72 | 71 | 1.0 | 2.0 | 0.00 | 0.26 | 0.26 | 96 | 1009.2 |
| 20260904021605 | 72 | 65 | 0.0 | 1.0 | 0.00 | 0.26 | 0.26 | 96 | 1009.4 |
| 20260904021507 | 73 | 184 | 0.0 | 0.0 | 0.00 | 1.06 | 0.26 | 96 | 1007.7 |
| 20260904021100 | 72 | 57 | 0.0 | 2.0 | 0.00 | 0.26 | 0.26 | 96 | 1009.5 |
| 20260904020555 | 72 | 102 | 0.0 | 1.0 | 0.00 | 0.26 | 0.26 | 96 | 1009.7 |
| 20260904020050 | 72 | 68 | 0.0 | 2.0 | 0.00 | 0.26 | 0.26 | 96 | 1009.7 |
| 20260904020007 | 73 | 184 | 0.0 | 0.0 | 0.00 | 1.06 | 0.26 | 96 | 1008.0 |
| 20260904015545 | 72 | 101 | 0.0 | 2.0 | 0.00 | 0.26 | 0.26 | 96 | 1009.7 |
| 20260904015043 | 72 | 74 | 2.0 | 2.0 | 0.00 | 0.26 | 0.26 | 96 | 1009.8 |
| 20260904014537 | 72 | 61 | 2.0 | 2.0 | 0.00 | 0.26 | 0.26 | 96 | 1010.0 |
| 20260904014506 | 73 | 184 | 0.0 | 1.0 | 0.00 | 1.06 | 0.26 | 95 | 1008.1 |
| 20260904014033 | 72 | 84 | 1.0 | 2.0 | 0.00 | 0.26 | 0.26 | 95 | 1009.9 |
| 20260904013529 | 73 | 50 | 0.0 | 2.0 | 0.00 | 0.26 | 0.26 | 95 | 1010.1 |
| 20260904013026 | 73 | 55 | 0.0 | 2.0 | 0.00 | 0.26 | 0.26 | 95 | 1010.3 |
| 20260904013008 | 73 | 184 | 0.0 | 0.0 | 0.00 | 1.06 | 0.26 | 96 | 1008.4 |
| 20260904012527 | 73 | 36 | 0.0 | 1.0 | 0.00 | 0.26 | 0.26 | 95 | 1010.0 |
| 20260904012026 | 73 | 344 | 0.0 | 1.0 | 0.00 | 0.26 | 0.26 | 96 | 1010.4 |
| 20260904011525 | 73 | 61 | 1.0 | 2.0 | 0.00 | 0.26 | 0.26 | 96 | 1010.5 |
| 20260904011507 | 74 | 184 | 0.0 | 0.0 | 0.00 | 1.06 | 0.26 | 96 | 1008.5 |
| 20260904011021 | 73 | 54 | 1.0 | 1.0 | 0.00 | 0.26 | 0.26 | 96 | 1010.3 |
| 20260904010517 | 73 | 309 | 0.0 | 1.0 | 0.00 | 0.26 | 0.26 | 95 | 1010.3 |
| 20260904010013 | 73 | 339 | 0.0 | 1.0 | 0.00 | 0.26 | 0.26 | 95 | 1010.3 |
| 20260904010007 | 74 | 184 | 0.0 | 0.0 | 0.00 | 1.06 | 0.26 | 95 | 1008.5 |
| 20260904005514 | 73 | 54 | 0.0 | 1.0 | 0.00 | 0.26 | 0.26 | 95 | 1010.1 |
| 20260904005009 | 73 | 238 | 0.0 | 1.0 | 0.00 | 0.26 | 0.26 | 95 | 1010.0 |
| 20260904004506 | 74 | 184 | 0.0 | 0.0 | 0.01 | 1.06 | 0.26 | 94 | 1008.4 |
| 20260904004004 | 73 | 81 | 1.0 | 2.0 | 0.00 | 0.26 | 0.26 | 95 | 1010.0 |
| 20260904003500 | 73 | 73 | 1.0 | 1.0 | 0.00 | 0.26 | 0.26 | 94 | 1009.9 |
| 20260904003007 | 75 | 180 | 0.0 | 0.0 | 0.01 | 1.06 | 0.26 | 93 | 1008.1 |
| 20260904002955 | 74 | 283 | 0.0 | 1.0 | 0.00 | 0.26 | 0.26 | 94 | 1010.1 |
| 20260904002453 | 74 | 182 | 0.0 | 2.0 | 0.00 | 0.26 | 0.26 | 93 | 1009.7 |
| 20260904001951 | 74 | 38 | 0.0 | 0.0 | 0.00 | 0.26 | 0.26 | 93 | 1009.5 |
| 20260904001506 | 75 | 180 | 0.0 | 0.0 | 0.01 | 1.06 | 0.26 | 91 | 1007.8 |
| 20260904001447 | 74 | 58 | 0.0 | 1.0 | 0.00 | 0.26 | 0.26 | 92 | 1009.8 |
| 20260904000946 | 75 | 65 | 0.0 | 2.0 | 0.02 | 0.26 | 0.26 | 92 | 1009.7 |
| 20260904000447 | 75 | 64 | 0.0 | 1.0 | 0.05 | 0.26 | 0.26 | 92 | 1009.7 |
| 20260904000006 | 76 | 180 | 0.0 | 1.0 | 0.01 | 1.06 | 0.26 | 90 | 1007.7 |
| 20260903235941 | 75 | 59 | 0.0 | 2.0 | 0.05 | 0.26 | 0.26 | 92 | 1009.4 |
| 20260903235438 | 75 | 302 | 0.0 | 2.0 | 0.02 | 0.25 | 0.25 | 91 | 1009.4 |
| 20260903234937 | 75 | 227 | 1.0 | 2.0 | 0.02 | 0.25 | 0.25 | 90 | 1009.6 |
| 20260903234506 | 77 | 244 | 0.0 | 0.0 | 0.00 | 1.05 | 0.25 | 87 | 1007.8 |
| 20260903234433 | 76 | 104 | 0.0 | 2.0 | 0.00 | 0.25 | 0.25 | 89 | 1009.7 |
| 20260903233929 | 76 | 271 | 0.0 | 1.0 | 0.00 | 0.25 | 0.25 | 87 | 1009.7 |
| 20260903233426 | 77 | 36 | 0.0 | 1.0 | 0.00 | 0.25 | 0.25 | 86 | 1009.5 |
| 20260903232925 | 77 | 52 | 0.0 | 2.0 | 0.00 | 0.25 | 0.25 | 86 | 1009.3 |
| 20260903232420 | 77 | 269 | 0.0 | 1.0 | 0.00 | 0.25 | 0.25 | 84 | 1009.5 |
| 20260903231920 | 78 | 195 | 0.0 | 1.0 | 0.00 | 0.25 | 0.25 | 83 | 1009.2 |
| 20260903231506 | 79 | 244 | 0.0 | 0.0 | 0.00 | 1.05 | 0.25 | 81 | 1007.3 |
| 20260903231415 | 78 | 41 | 0.0 | 2.0 | 0.00 | 0.25 | 0.25 | 83 | 1009.1 |
| 20260903230910 | 78 | 36 | 0.0 | 2.0 | 0.00 | 0.25 | 0.25 | 82 | 1009.5 |
| 20260903230405 | 78 | 296 | 0.0 | 0.0 | 0.00 | 0.25 | 0.25 | 81 | 1009.2 |
| 20260903230007 | 80 | 244 | 0.0 | 0.0 | 0.00 | 1.05 | 0.25 | 78 | 1007.4 |
| 20260903225902 | 79 | 62 | 0.0 | 1.0 | 0.00 | 0.25 | 0.25 | 79 | 1009.5 |
| 20260903225357 | 79 | 49 | 0.0 | 1.0 | 0.00 | 0.25 | 0.25 | 79 | 1009.5 |
| 20260903224853 | 79 | 293 | 0.0 | 1.0 | 0.00 | 0.25 | 0.25 | 79 | 1009.3 |
| 20260903224506 | 80 | 244 | 0.0 | 1.0 | 0.00 | 1.05 | 0.25 | 77 | 1007.3 |
| 20260903224349 | 80 | 58 | 1.0 | 2.0 | 0.00 | 0.25 | 0.25 | 78 | 1009.1 |
| 20260903223845 | 80 | 76 | 1.0 | 2.0 | 0.00 | 0.25 | 0.25 | 79 | 1009.0 |
| 20260903223343 | 80 | 229 | 0.0 | 1.0 | 0.00 | 0.25 | 0.25 | 77 | 1009.0 |
| 20260903223007 | 81 | 244 | 0.0 | 1.0 | 0.00 | 1.05 | 0.25 | 75 | 1007.0 |
| 20260903222838 | 81 | 269 | 0.0 | 1.0 | 0.00 | 0.25 | 0.25 | 74 | 1008.8 |
| 20260903222338 | 81 | 55 | 0.0 | 2.0 | 0.00 | 0.25 | 0.25 | 74 | 1008.9 |
| 20260903221833 | 81 | 89 | 0.0 | 1.0 | 0.00 | 0.25 | 0.25 | 73 | 1008.8 |
| 20260903221507 | 82 | 244 | 0.0 | 1.0 | 0.00 | 1.05 | 0.25 | 72 | 1006.7 |
| 20260903221332 | 82 | 76 | 1.0 | 2.0 | 0.00 | 0.25 | 0.25 | 73 | 1008.6 |
| 20260903220830 | 82 | 255 | 0.0 | 1.0 | 0.00 | 0.25 | 0.25 | 70 | 1008.8 |
| 20260903220324 | 82 | 264 | 0.0 | 2.0 | 0.00 | 0.25 | 0.25 | 70 | 1008.9 |
| 20260903215822 | 82 | 78 | 1.0 | 2.0 | 0.00 | 0.25 | 0.25 | 71 | 1008.9 |
| 20260903215319 | 82 | 61 | 0.0 | 1.0 | 0.00 | 0.25 | 0.25 | 70 | 1009.0 |
| 20260903214817 | 83 | 72 | 0.0 | 1.0 | 0.00 | 0.25 | 0.25 | 67 | 1008.9 |
| 20260903214508 | 83 | 246 | 1.0 | 2.0 | 0.00 | 1.05 | 0.25 | 67 | 1007.0 |
| 20260903214313 | 83 | 88 | 1.0 | 2.0 | 0.00 | 0.25 | 0.25 | 69 | 1009.0 |
| 20260903213808 | 82 | 295 | 1.0 | 1.0 | 0.00 | 0.25 | 0.25 | 66 | 1008.9 |
| 20260903213303 | 83 | 238 | 4.0 | 4.0 | 0.00 | 0.25 | 0.25 | 65 | 1009.0 |
| 20260903213007 | 83 | 243 | 0.0 | 2.0 | 0.00 | 1.05 | 0.25 | 67 | 1007.1 |
| 20260903212759 | 83 | 63 | 0.0 | 1.0 | 0.00 | 0.25 | 0.25 | 67 | 1008.8 |
| 20260903212256 | 83 | 25 | 0.0 | 2.0 | 0.00 | 0.25 | 0.25 | 66 | 1008.7 |
| 20260903211754 | 83 | 261 | 0.0 | 2.0 | 0.00 | 0.25 | 0.25 | 65 | 1008.9 |
| 20260903211507 | 84 | 247 | 1.0 | 2.0 | 0.00 | 1.05 | 0.25 | 66 | 1006.9 |
| 20260903211251 | 84 | 241 | 2.0 | 3.0 | 0.00 | 0.25 | 0.25 | 63 | 1008.8 |
| 20260903210747 | 84 | 233 | 2.0 | 3.0 | 0.00 | 0.25 | 0.25 | 62 | 1008.7 |
| 20260903210242 | 85 | 300 | 0.0 | 2.0 | 0.00 | 0.25 | 0.25 | 62 | 1008.7 |
| 20260903210007 | 85 | 92 | 0.0 | 2.0 | 0.00 | 1.05 | 0.25 | 60 | 1006.8 |
| 20260903205742 | 85 | 326 | 0.0 | 2.0 | 0.00 | 0.25 | 0.25 | 59 | 1008.7 |
| 20260903205241 | 85 | 314 | 1.0 | 2.0 | 0.00 | 0.25 | 0.25 | 59 | 1008.9 |
| 20260903204737 | 85 | 248 | 0.0 | 2.0 | 0.00 | 0.25 | 0.25 | 61 | 1008.6 |
| 20260903204233 | 85 | 22 | 1.0 | 2.0 | 0.00 | 0.25 | 0.25 | 58 | 1008.7 |
| 20260903203728 | 85 | 38 | 0.0 | 1.0 | 0.00 | 0.25 | 0.25 | 63 | 1009.1 |
| 20260903203224 | 86 | 5 | 0.0 | 2.0 | 0.00 | 0.25 | 0.25 | 59 | 1009.0 |
| 20260903203007 | 86 | 182 | 0.0 | 3.0 | 0.00 | 1.05 | 0.25 | 62 | 1007.1 |
| 20260903202723 | 86 | 58 | 1.0 | 2.0 | 0.00 | 0.25 | 0.25 | 58 | 1009.0 |
| 20260903202220 | 87 | 130 | 2.0 | 3.0 | 0.00 | 0.25 | 0.25 | 56 | 1009.1 |
| 20260903201719 | 87 | 0 | 2.0 | 2.0 | 0.00 | 0.25 | 0.25 | 56 | 1009.1 |
| 20260903201507 | 87 | 135 | 0.0 | 2.0 | 0.00 | 1.05 | 0.25 | 57 | 1007.1 |
| 20260903201215 | 88 | 159 | 1.0 | 3.0 | 0.00 | 0.25 | 0.25 | 57 | 1009.1 |
| 20260903200713 | 88 | 242 | 2.0 | 3.0 | 0.00 | 0.25 | 0.25 | 56 | 1009.0 |
| 20260903200209 | 88 | 63 | 0.0 | 2.0 | 0.00 | 0.25 | 0.25 | 55 | 1009.3 |
| 20260903200007 | 86 | 32 | 1.0 | 3.0 | 0.00 | 1.05 | 0.25 | 58 | 1007.1 |
| 20260903195704 | 88 | 70 | 1.0 | 2.0 | 0.00 | 0.25 | 0.25 | 56 | 1009.3 |
| 20260903195200 | 88 | 142 | 2.0 | 2.0 | 0.00 | 0.25 | 0.25 | 54 | 1009.2 |
| 20260903194700 | 86 | 254 | 1.0 | 3.0 | 0.00 | 0.25 | 0.25 | 56 | 1009.2 |
| 20260903194507 | 86 | 246 | 2.0 | 5.0 | 0.00 | 1.05 | 0.25 | 61 | 1007.2 |
| 20260903194155 | 86 | 168 | 2.0 | 6.0 | 0.00 | 0.25 | 0.25 | 58 | 1009.2 |
| 20260903193651 | 85 | 234 | 4.0 | 6.0 | 0.00 | 0.25 | 0.25 | 62 | 1009.2 |
| 20260903193151 | 85 | 215 | 2.0 | 6.0 | 0.00 | 0.25 | 0.25 | 58 | 1009.3 |
| 20260903193007 | 86 | 236 | 2.0 | 3.0 | 0.00 | 1.05 | 0.25 | 59 | 1007.2 |
| 20260903192648 | 87 | 234 | 5.0 | 6.0 | 0.00 | 0.25 | 0.25 | 58 | 1009.4 |
| 20260903192148 | 87 | 284 | 2.0 | 2.0 | 0.00 | 0.25 | 0.25 | 59 | 1009.5 |
| 20260903191644 | 88 | 198 | 1.0 | 2.0 | 0.00 | 0.25 | 0.25 | 57 | 1009.6 |
| 20260903191507 | 87 | 202 | 1.0 | 2.0 | 0.00 | 1.05 | 0.25 | 61 | 1007.6 |
| 20260903191144 | 88 | 260 | 0.0 | 2.0 | 0.00 | 0.25 | 0.25 | 56 | 1009.5 |
| 20260903190639 | 88 | 45 | 0.0 | 2.0 | 0.00 | 0.25 | 0.25 | 52 | 1009.5 |
| 20260903190139 | 88 | 49 | 1.0 | 3.0 | 0.00 | 0.25 | 0.25 | 55 | 1009.8 |
| 20260903190006 | 86 | 349 | 1.0 | 3.0 | 0.00 | 1.05 | 0.25 | 58 | 1007.7 |
| 20260903185634 | 87 | 258 | 0.0 | 4.0 | 0.00 | 0.25 | 0.25 | 61 | 1009.8 |
| 20260903185129 | 86 | 311 | 0.0 | 4.0 | 0.00 | 0.25 | 0.25 | 58 | 1009.9 |
| 20260903184626 | 87 | 241 | 2.0 | 4.0 | 0.00 | 0.25 | 0.25 | 59 | 1010.0 |
| 20260903184121 | 87 | 256 | 2.0 | 2.0 | 0.00 | 0.25 | 0.25 | 58 | 1010.0 |
| 20260903183619 | 87 | 260 | 2.0 | 3.0 | 0.00 | 0.25 | 0.25 | 57 | 1010.1 |
| 20260903183115 | 85 | 265 | 1.0 | 3.0 | 0.00 | 0.25 | 0.25 | 64 | 1010.2 |
| 20260903183007 | 85 | 107 | 1.0 | 5.0 | 0.00 | 1.05 | 0.25 | 62 | 1008.2 |
| 20260903182614 | 85 | 228 | 3.0 | 6.0 | 0.00 | 0.25 | 0.25 | 60 | 1010.2 |
| 20260903182110 | 87 | 78 | 2.0 | 3.0 | 0.00 | 0.25 | 0.25 | 53 | 1010.1 |
| 20260903181609 | 87 | 57 | 3.0 | 3.0 | 0.00 | 0.25 | 0.25 | 54 | 1010.3 |
| 20260903181507 | 85 | 157 | 1.0 | 3.0 | 0.00 | 1.05 | 0.25 | 60 | 1008.3 |
| 20260903181109 | 87 | 343 | 1.0 | 2.0 | 0.00 | 0.25 | 0.25 | 56 | 1010.3 |
| 20260903180604 | 86 | 133 | 2.0 | 2.0 | 0.00 | 0.25 | 0.25 | 58 | 1010.2 |
| 20260903180059 | 86 | 52 | 1.0 | 4.0 | 0.00 | 0.25 | 0.25 | 57 | 1010.2 |
| 20260903180006 | 84 | 82 | 1.0 | 3.0 | 0.00 | 1.05 | 0.25 | 60 | 1008.3 |
| 20260903175557 | 86 | 86 | 2.0 | 4.0 | 0.00 | 0.25 | 0.25 | 58 | 1010.3 |
| 20260903175057 | 85 | 93 | 0.0 | 3.0 | 0.00 | 0.25 | 0.25 | 57 | 1010.2 |
| 20260903174552 | 84 | 191 | 0.0 | 2.0 | 0.00 | 0.25 | 0.25 | 60 | 1010.5 |
| 20260903174506 | 83 | 128 | 0.0 | 3.0 | 0.00 | 1.05 | 0.25 | 62 | 1008.6 |
| 20260903174047 | 84 | 234 | 0.0 | 2.0 | 0.00 | 0.25 | 0.25 | 62 | 1010.4 |
| 20260903173542 | 84 | 265 | 1.0 | 4.0 | 0.00 | 0.25 | 0.25 | 62 | 1010.3 |
| 20260903173039 | 84 | 259 | 1.0 | 2.0 | 0.00 | 0.25 | 0.25 | 59 | 1010.6 |
| 20260903173007 | 84 | 165 | 1.0 | 3.0 | 0.00 | 1.05 | 0.25 | 59 | 1008.4 |
| 20260903172538 | 85 | 272 | 2.0 | 2.0 | 0.00 | 0.25 | 0.25 | 57 | 1010.2 |
| 20260903172034 | 85 | 255 | 2.0 | 4.0 | 0.00 | 0.25 | 0.25 | 60 | 1010.2 |
| 20260903171529 | 83 | 190 | 0.0 | 2.0 | 0.00 | 0.25 | 0.25 | 60 | 1010.2 |
| 20260903171507 | 83 | 244 | 1.0 | 3.0 | 0.00 | 1.05 | 0.25 | 63 | 1008.4 |
| 20260903171025 | 83 | 228 | 0.0 | 2.0 | 0.00 | 0.25 | 0.25 | 61 | 1010.2 |
| 20260903170523 | 83 | 238 | 4.0 | 6.0 | 0.00 | 0.25 | 0.25 | 65 | 1010.3 |
| 20260903170020 | 82 | 8 | 2.0 | 4.0 | 0.00 | 0.25 | 0.25 | 65 | 1010.4 |
| 20260903170007 | 81 | 299 | 1.0 | 3.0 | 0.00 | 1.05 | 0.25 | 67 | 1008.6 |
| 20260903165516 | 81 | 225 | 2.0 | 5.0 | 0.00 | 0.25 | 0.25 | 69 | 1010.4 |
| 20260903165012 | 82 | 231 | 5.0 | 5.0 | 0.00 | 0.25 | 0.25 | 67 | 1010.4 |
| 20260903164512 | 81 | 60 | 1.0 | 3.0 | 0.00 | 0.25 | 0.25 | 69 | 1010.6 |
| 20260903164007 | 81 | 232 | 3.0 | 5.0 | 0.00 | 0.25 | 0.25 | 72 | 1011.1 |
| 20260903163502 | 82 | 220 | 2.0 | 3.0 | 0.00 | 0.25 | 0.25 | 66 | 1010.8 |
| 20260903163008 | 81 | 257 | 1.0 | 3.0 | 0.00 | 1.05 | 0.25 | 69 | 1009.0 |
| 20260903162958 | 81 | 323 | 0.0 | 3.0 | 0.00 | 0.25 | 0.25 | 66 | 1010.9 |
| 20260903162455 | 81 | 114 | 2.0 | 3.0 | 0.00 | 0.25 | 0.25 | 69 | 1010.7 |
| 20260903161950 | 81 | 107 | 1.0 | 3.0 | 0.00 | 0.25 | 0.25 | 66 | 1011.0 |
| 20260903161445 | 80 | 237 | 1.0 | 2.0 | 0.00 | 0.25 | 0.25 | 68 | 1011.2 |
| 20260903160942 | 80 | 253 | 1.0 | 4.0 | 0.00 | 0.25 | 0.25 | 69 | 1011.1 |
| 20260903160440 | 80 | 86 | 0.0 | 4.0 | 0.00 | 0.25 | 0.25 | 69 | 1011.1 |
| 20260903160007 | 79 | 221 | 1.0 | 3.0 | 0.00 | 1.05 | 0.25 | 73 | 1009.5 |
| 20260903155939 | 80 | 35 | 0.0 | 3.0 | 0.00 | 0.25 | 0.25 | 70 | 1011.4 |
| 20260903155439 | 79 | 283 | 1.0 | 4.0 | 0.00 | 0.25 | 0.25 | 71 | 1011.6 |
| 20260903154935 | 79 | 241 | 1.0 | 2.0 | 0.00 | 0.25 | 0.25 | 71 | 1011.6 |
| 20260903154506 | 78 | 257 | 1.0 | 3.0 | 0.00 | 1.05 | 0.25 | 75 | 1009.8 |
| 20260903154431 | 78 | 198 | 0.0 | 2.0 | 0.00 | 0.25 | 0.25 | 72 | 1011.4 |
| 20260903153926 | 78 | 212 | 1.0 | 4.0 | 0.00 | 0.25 | 0.25 | 69 | 1011.6 |
| 20260903153422 | 77 | 42 | 2.0 | 2.0 | 0.00 | 0.25 | 0.25 | 73 | 1011.7 |
| 20260903153007 | 78 | 246 | 2.0 | 3.0 | 0.00 | 1.05 | 0.25 | 74 | 1009.9 |
| 20260903152918 | 78 | 248 | 3.0 | 3.0 | 0.00 | 0.25 | 0.25 | 75 | 1011.9 |
| 20260903152414 | 78 | 221 | 0.0 | 2.0 | 0.00 | 0.25 | 0.25 | 71 | 1011.8 |
| 20260903151914 | 79 | 282 | 1.0 | 2.0 | 0.00 | 0.25 | 0.25 | 72 | 1011.8 |
| 20260903151506 | 77 | 58 | 0.0 | 2.0 | 0.00 | 1.05 | 0.25 | 75 | 1010.1 |
| 20260903151409 | 78 | 45 | 2.0 | 2.0 | 0.00 | 0.25 | 0.25 | 70 | 1012.0 |
| 20260903150910 | 78 | 49 | 0.0 | 2.0 | 0.00 | 0.25 | 0.25 | 74 | 1011.9 |
| 20260903150404 | 77 | 89 | 0.0 | 2.0 | 0.00 | 0.25 | 0.25 | 74 | 1011.9 |
| 20260903150007 | 75 | 123 | 1.0 | 3.0 | 0.00 | 1.05 | 0.25 | 78 | 1010.1 |
| 20260903145859 | 76 | 78 | 2.0 | 3.0 | 0.00 | 0.25 | 0.25 | 74 | 1011.8 |
| 20260903145354 | 75 | 10 | 1.0 | 2.0 | 0.00 | 0.25 | 0.25 | 77 | 1011.7 |
| 20260903144853 | 76 | 265 | 1.0 | 2.0 | 0.00 | 0.25 | 0.25 | 77 | 1011.8 |
| 20260903144507 | 73 | 95 | 0.0 | 2.0 | 0.00 | 1.05 | 0.25 | 82 | 1010.1 |
| 20260903144349 | 75 | 129 | 0.0 | 2.0 | 0.00 | 0.25 | 0.25 | 77 | 1011.7 |
| 20260903143844 | 75 | 70 | 0.0 | 2.0 | 0.00 | 0.25 | 0.25 | 79 | 1011.8 |
| 20260903143341 | 74 | 115 | 2.0 | 2.0 | 0.00 | 0.25 | 0.25 | 80 | 1012.0 |
| 20260903143007 | 72 | 147 | 1.0 | 2.0 | 0.00 | 1.05 | 0.25 | 89 | 1010.4 |
| 20260903142841 | 73 | 251 | 1.0 | 2.0 | 0.00 | 0.25 | 0.25 | 83 | 1012.2 |
| 20260903142337 | 73 | 87 | 1.0 | 2.0 | 0.00 | 0.25 | 0.25 | 85 | 1012.3 |
| 20260903141833 | 72 | 274 | 0.0 | 2.0 | 0.00 | 0.25 | 0.25 | 85 | 1012.5 |
| 20260903141507 | 71 | 288 | 0.0 | 2.0 | 0.00 | 1.05 | 0.25 | 91 | 1010.6 |
| 20260903141329 | 72 | 37 | 2.0 | 2.0 | 0.00 | 0.25 | 0.25 | 87 | 1012.3 |
| 20260903140824 | 71 | 36 | 1.0 | 2.0 | 0.00 | 0.25 | 0.25 | 89 | 1012.2 |
| 20260903140319 | 70 | 68 | 1.0 | 2.0 | 0.00 | 0.25 | 0.25 | 90 | 1012.3 |
| 20260903140007 | 70 | 257 | 0.0 | 2.0 | 0.00 | 1.05 | 0.25 | 92 | 1010.7 |
| 20260903135815 | 70 | 127 | 0.0 | 1.0 | 0.00 | 0.25 | 0.25 | 89 | 1012.5 |
| 20260903135310 | 70 | 323 | 0.0 | 1.0 | 0.00 | 0.25 | 0.25 | 89 | 1012.1 |
| 20260903134809 | 70 | 111 | 0.0 | 1.0 | 0.00 | 0.25 | 0.25 | 89 | 1012.3 |
| 20260903134507 | 69 | 254 | 0.0 | 2.0 | 0.00 | 1.05 | 0.25 | 92 | 1010.5 |
| 20260903134304 | 70 | 229 | 0.0 | 1.0 | 0.00 | 0.25 | 0.25 | 89 | 1012.2 |
| 20260903133802 | 70 | 16 | 0.0 | 3.0 | 0.00 | 0.25 | 0.25 | 90 | 1012.2 |
| 20260903133258 | 69 | 117 | 0.0 | 2.0 | 0.00 | 0.25 | 0.25 | 91 | 1012.3 |
| 20260903133007 | 69 | 244 | 0.0 | 2.0 | 0.00 | 1.05 | 0.25 | 94 | 1010.4 |
| 20260903132758 | 69 | 269 | 0.0 | 2.0 | 0.00 | 0.25 | 0.25 | 91 | 1011.9 |
| 20260903132254 | 69 | 231 | 1.0 | 2.0 | 0.00 | 0.25 | 0.25 | 91 | 1012.0 |
| 20260903131748 | 69 | 234 | 1.0 | 1.0 | 0.00 | 0.25 | 0.25 | 90 | 1012.0 |
| 20260903131507 | 68 | 160 | 0.0 | 1.0 | 0.00 | 1.05 | 0.25 | 94 | 1010.3 |
| 20260903131247 | 69 | 19 | 0.0 | 1.0 | 0.00 | 0.25 | 0.25 | 91 | 1012.0 |
| 20260903130742 | 69 | 73 | 0.0 | 1.0 | 0.00 | 0.25 | 0.25 | 90 | 1012.0 |
| 20260903130237 | 69 | 217 | 0.0 | 2.0 | 0.00 | 0.25 | 0.25 | 90 | 1011.9 |
| 20260903130006 | 68 | 160 | 0.0 | 1.0 | 0.00 | 1.05 | 0.25 | 95 | 1010.2 |
| 20260903125735 | 69 | 261 | 0.0 | 1.0 | 0.00 | 0.25 | 0.25 | 90 | 1011.9 |
| 20260903125231 | 69 | 89 | 0.0 | 1.0 | 0.00 | 0.25 | 0.25 | 91 | 1011.9 |
| 20260903124730 | 69 | 233 | 0.0 | 2.0 | 0.00 | 0.25 | 0.25 | 92 | 1012.0 |
| 20260903124507 | 68 | 160 | 0.0 | 1.0 | 0.00 | 1.05 | 0.25 | 97 | 1010.3 |
| 20260903124226 | 69 | 235 | 0.0 | 1.0 | 0.00 | 0.25 | 0.25 | 92 | 1012.0 |
| 20260903123724 | 69 | 74 | 0.0 | 1.0 | 0.09 | 0.25 | 0.25 | 91 | 1012.1 |
| 20260903123224 | 69 | 62 | 0.0 | 2.0 | 0.09 | 0.25 | 0.25 | 92 | 1011.8 |
| 20260903123007 | 67 | 160 | 0.0 | 1.0 | 0.00 | 1.05 | 0.25 | 98 | 1010.2 |
| 20260903122723 | 69 | 333 | 0.0 | 0.0 | 0.00 | 0.23 | 0.23 | 93 | 1012.1 |
| 20260903122218 | 69 | 30 | 0.0 | 1.0 | 0.00 | 0.23 | 0.23 | 97 | 1012.1 |
| 20260903121716 | 68 | 69 | 0.0 | 1.0 | 0.00 | 0.23 | 0.23 | 98 | 1012.0 |
| 20260903121507 | 67 | 159 | 0.0 | 1.0 | 0.00 | 1.05 | 0.25 | 98 | 1010.2 |
| 20260903121213 | 67 | 23 | 1.0 | 2.0 | 0.00 | 0.23 | 0.23 | 98 | 1012.0 |
| 20260903120712 | 66 | 65 | 0.0 | 1.0 | 0.00 | 0.23 | 0.23 | 97 | 1011.9 |
| 20260903120206 | 66 | 25 | 0.0 | 1.0 | 0.00 | 0.23 | 0.23 | 98 | 1011.7 |
| 20260903120007 | 66 | 159 | 0.0 | 1.0 | 0.00 | 1.05 | 0.25 | 98 | 1009.9 |
| 20260903115705 | 66 | 58 | 0.0 | 2.0 | 0.00 | 0.23 | 0.23 | 98 | 1011.3 |
| 20260903115201 | 66 | 51 | 1.0 | 2.0 | 0.00 | 0.23 | 0.23 | 97 | 1011.3 |
| 20260903114701 | 66 | 47 | 0.0 | 2.0 | 0.00 | 0.23 | 0.23 | 97 | 1011.4 |
| 20260903114506 | 66 | 159 | 0.0 | 1.0 | 0.00 | 1.05 | 0.25 | 98 | 1009.6 |
| 20260903114156 | 66 | 64 | 1.0 | 1.0 | 0.00 | 0.23 | 0.23 | 97 | 1011.3 |
| 20260903113651 | 66 | 57 | 2.0 | 2.0 | 0.00 | 0.23 | 0.23 | 97 | 1011.6 |
| 20260903113147 | 66 | 85 | 1.0 | 2.0 | 0.00 | 0.23 | 0.23 | 97 | 1010.9 |
| 20260903113008 | 66 | 159 | 0.0 | 1.0 | 0.00 | 1.05 | 0.25 | 98 | 1009.7 |
| 20260903112644 | 66 | 30 | 1.0 | 1.0 | 0.00 | 0.23 | 0.23 | 97 | 1011.3 |
| 20260903112144 | 66 | 113 | 0.0 | 1.0 | 0.00 | 0.23 | 0.23 | 97 | 1011.2 |
| 20260903111643 | 66 | 5 | 0.0 | 1.0 | 0.00 | 0.23 | 0.23 | 97 | 1010.9 |
| 20260903111506 | 66 | 159 | 0.0 | 1.0 | 0.01 | 1.05 | 0.25 | 97 | 1009.3 |
| 20260903111138 | 65 | 50 | 0.0 | 1.0 | 0.00 | 0.23 | 0.23 | 97 | 1011.0 |
| 20260903110634 | 65 | 58 | 2.0 | 2.0 | 0.00 | 0.23 | 0.23 | 97 | 1011.0 |
| 20260903110130 | 65 | 72 | 0.0 | 1.0 | 0.00 | 0.23 | 0.23 | 97 | 1010.7 |
| 20260903110007 | 66 | 159 | 0.0 | 2.0 | 0.01 | 1.05 | 0.25 | 97 | 1009.1 |
| 20260903105624 | 65 | 269 | 0.0 | 2.0 | 0.00 | 0.23 | 0.23 | 97 | 1010.9 |
| 20260903105120 | 66 | 55 | 0.0 | 2.0 | 0.00 | 0.23 | 0.23 | 96 | 1010.8 |
| 20260903104619 | 66 | 85 | 1.0 | 2.0 | 0.02 | 0.23 | 0.23 | 96 | 1010.9 |
| 20260903104507 | 66 | 153 | 0.0 | 2.0 | 0.01 | 1.05 | 0.25 | 96 | 1009.3 |
| 20260903104115 | 66 | 79 | 1.0 | 2.0 | 0.02 | 0.23 | 0.23 | 96 | 1011.0 |
| 20260903103610 | 66 | 52 | 2.0 | 3.0 | 0.00 | 0.23 | 0.23 | 95 | 1011.3 |
| 20260903103107 | 66 | 50 | 0.0 | 2.0 | 0.00 | 0.23 | 0.23 | 95 | 1011.6 |
| 20260903103009 | 66 | 238 | 0.0 | 0.0 | 0.01 | 1.05 | 0.25 | 96 | 1009.7 |
| 20260903102602 | 66 | 99 | 0.0 | 2.0 | 0.02 | 0.23 | 0.23 | 94 | 1011.3 |
| 20260903102101 | 66 | 18 | 1.0 | 2.0 | 0.02 | 0.23 | 0.23 | 94 | 1012.1 |
| 20260903101601 | 67 | 68 | 1.0 | 2.0 | 0.00 | 0.22 | 0.22 | 93 | 1011.8 |
| 20260903101507 | 66 | 238 | 0.0 | 3.0 | 0.00 | 1.04 | 0.24 | 95 | 1010.0 |
| 20260903101056 | 67 | 88 | 0.0 | 2.0 | 0.00 | 0.22 | 0.22 | 93 | 1011.8 |
| 20260903100556 | 66 | 230 | 2.0 | 2.0 | 0.00 | 0.22 | 0.22 | 94 | 1011.8 |
| 20260903100055 | 67 | 228 | 3.0 | 4.0 | 0.00 | 0.22 | 0.22 | 93 | 1012.4 |
| 20260903095553 | 67 | 130 | 0.0 | 1.0 | 0.00 | 0.22 | 0.22 | 93 | 1012.6 |
| 20260903095048 | 66 | 55 | 0.0 | 2.0 | 0.00 | 0.22 | 0.22 | 93 | 1012.2 |
| 20260903094548 | 66 | 217 | 0.0 | 3.0 | 0.00 | 0.22 | 0.22 | 94 | 1012.1 |
| 20260903094506 | 66 | 246 | 1.0 | 3.0 | 0.00 | 1.04 | 0.24 | 96 | 1010.4 |
| 20260903094044 | 66 | 230 | 0.0 | 3.0 | 0.00 | 0.22 | 0.22 | 95 | 1011.8 |
| 20260903093544 | 66 | 225 | 2.0 | 3.0 | 0.00 | 0.22 | 0.22 | 95 | 1011.8 |
| 20260903093040 | 66 | 62 | 0.0 | 2.0 | 0.00 | 0.22 | 0.22 | 94 | 1012.1 |
| 20260903093007 | 66 | 186 | 0.0 | 1.0 | 0.00 | 1.04 | 0.24 | 96 | 1010.3 |
| 20260903092540 | 66 | 23 | 0.0 | 2.0 | 0.00 | 0.22 | 0.22 | 94 | 1012.0 |
| 20260903092040 | 66 | 94 | 0.0 | 1.0 | 0.00 | 0.22 | 0.22 | 94 | 1012.1 |
| 20260903091538 | 66 | 74 | 2.0 | 3.0 | 0.00 | 0.22 | 0.22 | 94 | 1012.2 |
| 20260903091507 | 66 | 253 | 1.0 | 3.0 | 0.00 | 1.04 | 0.24 | 96 | 1010.6 |
| 20260903091032 | 66 | 48 | 0.0 | 2.0 | 0.00 | 0.22 | 0.22 | 95 | 1012.1 |
| 20260903090529 | 66 | 33 | 1.0 | 2.0 | 0.00 | 0.22 | 0.22 | 95 | 1011.9 |
| 20260903090027 | 66 | 59 | 0.0 | 2.0 | 0.00 | 0.22 | 0.22 | 94 | 1012.0 |
| 20260903090007 | 66 | 194 | 0.0 | 2.0 | 0.00 | 1.04 | 0.24 | 96 | 1010.4 |
| 20260903085525 | 66 | 78 | 0.0 | 2.0 | 0.00 | 0.22 | 0.22 | 94 | 1012.2 |
| 20260903085021 | 66 | 89 | 0.0 | 2.0 | 0.00 | 0.22 | 0.22 | 93 | 1011.9 |
| 20260903084520 | 66 | 309 | 0.0 | 1.0 | 0.00 | 0.22 | 0.22 | 93 | 1011.8 |
| 20260903084508 | 66 | 248 | 0.0 | 5.0 | 0.00 | 1.04 | 0.24 | 94 | 1010.1 |
| 20260903084014 | 66 | 235 | 2.0 | 5.0 | 0.00 | 0.22 | 0.22 | 94 | 1011.7 |
| 20260903083511 | 66 | 232 | 4.0 | 6.0 | 0.00 | 0.22 | 0.22 | 95 | 1011.2 |
| 20260903083010 | 65 | 3 | 2.0 | 4.0 | 0.00 | 0.22 | 0.22 | 95 | 1011.2 |
| 20260903083006 | 66 | 15 | 1.0 | 3.0 | 0.00 | 1.04 | 0.24 | 95 | 1009.6 |
| 20260903082504 | 65 | 38 | 0.0 | 1.0 | 0.00 | 0.22 | 0.22 | 95 | 1011.3 |
| 20260903082000 | 66 | 49 | 1.0 | 2.0 | 0.00 | 0.22 | 0.22 | 94 | 1011.2 |
| 20260903081506 | 66 | 309 | 0.0 | 3.0 | 0.00 | 1.04 | 0.24 | 94 | 1010.0 |
| 20260903081455 | 66 | 58 | 1.0 | 2.0 | 0.00 | 0.22 | 0.22 | 93 | 1011.6 |
| 20260903080951 | 66 | 49 | 0.0 | 2.0 | 0.00 | 0.22 | 0.22 | 93 | 1011.6 |
| 20260903080447 | 66 | 252 | 4.0 | 4.0 | 0.00 | 0.22 | 0.22 | 92 | 1011.9 |
| 20260903080007 | 66 | 243 | 1.0 | 7.0 | 0.00 | 1.04 | 0.24 | 95 | 1010.2 |
| 20260903075943 | 66 | 101 | 0.0 | 7.0 | 0.00 | 0.22 | 0.22 | 93 | 1011.7 |
| 20260903075438 | 66 | 242 | 0.0 | 3.0 | 0.00 | 0.22 | 0.22 | 94 | 1011.6 |
| 20260903074933 | 66 | 234 | 4.0 | 4.0 | 0.00 | 0.22 | 0.22 | 93 | 1011.4 |
| 20260903074507 | 66 | 237 | 1.0 | 10.0 | 0.00 | 1.04 | 0.24 | 96 | 1009.9 |
| 20260903074432 | 66 | 99 | 1.0 | 4.0 | 0.00 | 0.22 | 0.22 | 93 | 1011.7 |
| 20260903073927 | 66 | 232 | 3.0 | 10.0 | 0.00 | 0.22 | 0.22 | 94 | 1011.3 |
| 20260903073422 | 66 | 232 | 7.0 | 8.0 | 0.00 | 0.22 | 0.22 | 97 | 1011.1 |
| 20260903073007 | 65 | 231 | 3.0 | 10.0 | 0.03 | 1.04 | 0.24 | 99 | 1009.4 |
| 20260903072918 | 65 | 230 | 4.0 | 5.0 | 0.00 | 0.22 | 0.22 | 98 | 1011.0 |
| 20260903072414 | 65 | 165 | 1.0 | 14.0 | 0.00 | 0.22 | 0.22 | 99 | 1011.1 |
| 20260903071911 | 64 | 246 | 4.0 | 4.0 | 0.00 | 0.22 | 0.22 | 98 | 1011.3 |
| 20260903071507 | 64 | 348 | 1.0 | 2.0 | 0.07 | 1.04 | 0.24 | 99 | 1009.6 |
| 20260903071407 | 64 | 72 | 0.0 | 2.0 | 0.00 | 0.22 | 0.22 | 98 | 1011.1 |
| 20260903070903 | 64 | 339 | 0.0 | 1.0 | 0.00 | 0.22 | 0.22 | 98 | 1010.9 |
| 20260903070357 | 64 | 80 | 0.0 | 3.0 | 0.00 | 0.22 | 0.22 | 98 | 1010.7 |
| 20260903070007 | 64 | 111 | 0.0 | 2.0 | 0.13 | 1.04 | 0.24 | 99 | 1009.6 |
| 20260903065851 | 64 | 26 | 0.0 | 2.0 | 0.00 | 0.22 | 0.22 | 98 | 1011.0 |
| 20260903065351 | 64 | 64 | 0.0 | 2.0 | 0.02 | 0.22 | 0.22 | 98 | 1011.0 |
| 20260903064850 | 64 | 103 | 2.0 | 2.0 | 0.02 | 0.22 | 0.22 | 98 | 1011.2 |
| 20260903064507 | 64 | 27 | 0.0 | 3.0 | 0.15 | 1.04 | 0.24 | 99 | 1009.7 |
| 20260903064346 | 64 | 10 | 2.0 | 2.0 | 0.05 | 0.22 | 0.22 | 98 | 1011.3 |
| 20260903063842 | 64 | 44 | 0.0 | 1.0 | 0.17 | 0.22 | 0.22 | 98 | 1011.6 |
| 20260903063336 | 64 | 7 | 2.0 | 3.0 | 0.14 | 0.20 | 0.20 | 98 | 1011.7 |
| 20260903063009 | 64 | 260 | 0.0 | 2.0 | 0.13 | 1.01 | 0.21 | 98 | 1010.2 |
| 20260903062833 | 64 | 352 | 0.0 | 2.0 | 0.14 | 0.19 | 0.19 | 98 | 1011.9 |